sensor_id;sensor_type;location;lat;lon;timestamp;temperature;humidity
50013;DHT22;35901;48.694;9.476;2023-12-14T00:00:14;4.00;99.90
50013;DHT22;35901;48.694;9.476;2023-12-14T00:02:40;4.10;99.90
50013;DHT22;35901;48.694;9.476;2023-12-14T00:05:06;4.10;99.90
50013;DHT22;35901;48.694;9.476;2023-12-14T00:07:32;4.10;99.90
50013;DHT22;35901;48.694;9.476;2023-12-14T00:09:57;4.10;99.90
50013;DHT22;35901;48.694;9.476;2023-12-14T00:12:23;4.10;99.90
50013;DHT22;35901;48.694;9.476;2023-12-14T00:14:49;4.10;99.90
50013;DHT22;35901;48.694;9.476;2023-12-14T00:17:14;4.10;99.90
50013;DHT22;35901;48.694;9.476;2023-12-14T00:19:40;4.10;99.90
50013;DHT22;35901;48.694;9.476;2023-12-14T00:22:05;4.20;99.90
50013;DHT22;35901;48.694;9.476;2023-12-14T00:24:31;4.20;99.90
50013;DHT22;35901;48.694;9.476;2023-12-14T00:26:57;4.20;99.90
50013;DHT22;35901;48.694;9.476;2023-12-14T00:29:22;4.20;99.90
50013;DHT22;35901;48.694;9.476;2023-12-14T00:31:48;4.20;99.90
50013;DHT22;35901;48.694;9.476;2023-12-14T00:34:13;4.20;99.90
50013;DHT22;35901;48.694;9.476;2023-12-14T00:36:39;4.20;99.90
50013;DHT22;35901;48.694;9.476;2023-12-14T00:39:05;4.20;99.90
50013;DHT22;35901;48.694;9.476;2023-12-14T00:41:30;4.10;99.90
50013;DHT22;35901;48.694;9.476;2023-12-14T00:43:56;4.10;99.90
50013;DHT22;35901;48.694;9.476;2023-12-14T00:46:21;4.10;99.90
50013;DHT22;35901;48.694;9.476;2023-12-14T00:48:47;4.10;99.90
50013;DHT22;35901;48.694;9.476;2023-12-14T00:51:13;4.10;99.90
50013;DHT22;35901;48.694;9.476;2023-12-14T00:53:38;4.20;99.90
50013;DHT22;35901;48.694;9.476;2023-12-14T00:56:04;4.20;99.90
50013;DHT22;35901;48.694;9.476;2023-12-14T00:58:33;4.10;99.90
50013;DHT22;35901;48.694;9.476;2023-12-14T01:00:58;4.20;99.90
50013;DHT22;35901;48.694;9.476;2023-12-14T01:03:24;4.20;99.90
50013;DHT22;35901;48.694;9.476;2023-12-14T01:05:49;4.20;99.90
50013;DHT22;35901;48.694;9.476;2023-12-14T01:08:15;4.20;99.90
50013;DHT22;35901;48.694;9.476;2023-12-14T01:10:41;4.20;99.90
50013;DHT22;35901;48.694;9.476;2023-12-14T01:13:07;4.20;99.90
50013;DHT22;35901;48.694;9.476;2023-12-14T01:15:33;4.20;99.90
50013;DHT22;35901;48.694;9.476;2023-12-14T01:17:59;4.20;99.90
50013;DHT22;35901;48.694;9.476;2023-12-14T01:20:24;4.30;99.90
50013;DHT22;35901;48.694;9.476;2023-12-14T01:22:50;4.30;99.90
50013;DHT22;35901;48.694;9.476;2023-12-14T01:25:15;4.30;99.90
50013;DHT22;35901;48.694;9.476;2023-12-14T01:27:41;4.30;99.90
50013;DHT22;35901;48.694;9.476;2023-12-14T01:30:07;4.30;99.90
50013;DHT22;35901;48.694;9.476;2023-12-14T01:32:33;4.30;99.90
50013;DHT22;35901;48.694;9.476;2023-12-14T01:34:58;4.30;99.90
50013;DHT22;35901;48.694;9.476;2023-12-14T01:37:24;4.30;99.90
50013;DHT22;35901;48.694;9.476;2023-12-14T01:39:50;4.30;99.90
50013;DHT22;35901;48.694;9.476;2023-12-14T01:42:16;4.30;99.90
50013;DHT22;35901;48.694;9.476;2023-12-14T01:44:41;4.30;99.90
50013;DHT22;35901;48.694;9.476;2023-12-14T01:47:07;4.30;99.90
50013;DHT22;35901;48.694;9.476;2023-12-14T01:49:35;4.30;99.90
50013;DHT22;35901;48.694;9.476;2023-12-14T01:52:01;4.30;99.90
50013;DHT22;35901;48.694;9.476;2023-12-14T01:54:27;4.30;99.90
50013;DHT22;35901;48.694;9.476;2023-12-14T01:56:52;4.30;99.90
50013;DHT22;35901;48.694;9.476;2023-12-14T01:59:19;4.30;99.90
50013;DHT22;35901;48.694;9.476;2023-12-14T02:01:47;4.30;99.90
50013;DHT22;35901;48.694;9.476;2023-12-14T02:04:17;4.30;99.90
50013;DHT22;35901;48.694;9.476;2023-12-14T02:06:43;4.30;99.90
50013;DHT22;35901;48.694;9.476;2023-12-14T02:09:09;4.40;99.90
50013;DHT22;35901;48.694;9.476;2023-12-14T02:11:35;4.30;99.90
50013;DHT22;35901;48.694;9.476;2023-12-14T02:14:11;4.30;99.90
50013;DHT22;35901;48.694;9.476;2023-12-14T02:16:37;4.40;99.90
50013;DHT22;35901;48.694;9.476;2023-12-14T02:19:06;4.40;99.90
50013;DHT22;35901;48.694;9.476;2023-12-14T02:21:31;4.30;99.90
50013;DHT22;35901;48.694;9.476;2023-12-14T02:23:57;4.30;99.90
50013;DHT22;35901;48.694;9.476;2023-12-14T02:26:23;4.40;99.90
50013;DHT22;35901;48.694;9.476;2023-12-14T02:28:48;4.40;99.90
50013;DHT22;35901;48.694;9.476;2023-12-14T02:31:14;4.30;99.90
50013;DHT22;35901;48.694;9.476;2023-12-14T02:33:40;4.40;99.90
50013;DHT22;35901;48.694;9.476;2023-12-14T02:36:05;4.30;99.90
50013;DHT22;35901;48.694;9.476;2023-12-14T02:38:31;4.30;99.90
50013;DHT22;35901;48.694;9.476;2023-12-14T02:40:57;4.30;99.90
50013;DHT22;35901;48.694;9.476;2023-12-14T02:43:23;4.30;99.90
50013;DHT22;35901;48.694;9.476;2023-12-14T02:45:49;4.30;99.90
50013;DHT22;35901;48.694;9.476;2023-12-14T02:48:15;4.30;99.90
50013;DHT22;35901;48.694;9.476;2023-12-14T02:51:04;4.30;99.90
50013;DHT22;35901;48.694;9.476;2023-12-14T02:53:30;4.30;99.90
50013;DHT22;35901;48.694;9.476;2023-12-14T02:55:55;4.20;99.90
50013;DHT22;35901;48.694;9.476;2023-12-14T02:58:21;4.20;99.90
50013;DHT22;35901;48.694;9.476;2023-12-14T03:00:47;4.30;99.90
50013;DHT22;35901;48.694;9.476;2023-12-14T03:03:12;4.30;99.90
50013;DHT22;35901;48.694;9.476;2023-12-14T03:05:38;4.30;99.90
50013;DHT22;35901;48.694;9.476;2023-12-14T03:08:04;4.30;99.90
50013;DHT22;35901;48.694;9.476;2023-12-14T03:10:29;4.30;99.90
50013;DHT22;35901;48.694;9.476;2023-12-14T03:12:55;4.30;99.90
50013;DHT22;35901;48.694;9.476;2023-12-14T03:15:21;4.30;99.90
50013;DHT22;35901;48.694;9.476;2023-12-14T03:17:47;4.30;99.90
50013;DHT22;35901;48.694;9.476;2023-12-14T03:20:13;4.30;99.90
50013;DHT22;35901;48.694;9.476;2023-12-14T03:22:40;4.30;99.90
50013;DHT22;35901;48.694;9.476;2023-12-14T03:25:06;4.40;99.90
50013;DHT22;35901;48.694;9.476;2023-12-14T03:27:32;4.40;99.90
50013;DHT22;35901;48.694;9.476;2023-12-14T03:29:57;4.40;99.90
50013;DHT22;35901;48.694;9.476;2023-12-14T03:32:23;4.40;99.90
50013;DHT22;35901;48.694;9.476;2023-12-14T03:34:48;4.30;99.90
50013;DHT22;35901;48.694;9.476;2023-12-14T03:37:14;4.30;99.90
50013;DHT22;35901;48.694;9.476;2023-12-14T03:39:40;4.20;99.90
50013;DHT22;35901;48.694;9.476;2023-12-14T03:42:05;4.20;99.90
50013;DHT22;35901;48.694;9.476;2023-12-14T03:44:31;4.20;99.90
50013;DHT22;35901;48.694;9.476;2023-12-14T03:46:57;4.20;99.90
50013;DHT22;35901;48.694;9.476;2023-12-14T03:49:23;4.20;99.90
50013;DHT22;35901;48.694;9.476;2023-12-14T03:51:49;4.20;99.90
50013;DHT22;35901;48.694;9.476;2023-12-14T03:54:15;4.20;99.90
50013;DHT22;35901;48.694;9.476;2023-12-14T03:56:40;4.30;99.90
50013;DHT22;35901;48.694;9.476;2023-12-14T03:59:06;4.30;99.90
50013;DHT22;35901;48.694;9.476;2023-12-14T04:01:32;4.30;99.90
50013;DHT22;35901;48.694;9.476;2023-12-14T04:03:59;4.30;99.90
50013;DHT22;35901;48.694;9.476;2023-12-14T04:06:24;4.40;99.90
50013;DHT22;35901;48.694;9.476;2023-12-14T04:08:50;4.40;99.90
50013;DHT22;35901;48.694;9.476;2023-12-14T04:11:15;4.40;99.90
50013;DHT22;35901;48.694;9.476;2023-12-14T04:13:41;4.40;99.90
50013;DHT22;35901;48.694;9.476;2023-12-14T04:16:07;4.40;99.90
50013;DHT22;35901;48.694;9.476;2023-12-14T04:18:33;4.40;99.90
50013;DHT22;35901;48.694;9.476;2023-12-14T04:20:59;4.50;99.90
50013;DHT22;35901;48.694;9.476;2023-12-14T04:23:24;4.40;99.90
50013;DHT22;35901;48.694;9.476;2023-12-14T04:25:51;4.40;99.90
50013;DHT22;35901;48.694;9.476;2023-12-14T04:28:17;4.40;99.90
50013;DHT22;35901;48.694;9.476;2023-12-14T04:30:42;4.40;99.90
50013;DHT22;35901;48.694;9.476;2023-12-14T04:33:08;4.40;99.90
50013;DHT22;35901;48.694;9.476;2023-12-14T04:35:33;4.40;99.90
50013;DHT22;35901;48.694;9.476;2023-12-14T04:38:02;4.40;99.90
50013;DHT22;35901;48.694;9.476;2023-12-14T04:40:27;4.40;99.90
50013;DHT22;35901;48.694;9.476;2023-12-14T04:42:53;4.40;99.90
50013;DHT22;35901;48.694;9.476;2023-12-14T04:45:19;4.40;99.90
50013;DHT22;35901;48.694;9.476;2023-12-14T04:47:44;4.40;99.90
50013;DHT22;35901;48.694;9.476;2023-12-14T04:50:10;4.50;99.90
50013;DHT22;35901;48.694;9.476;2023-12-14T04:52:38;4.50;99.90
50013;DHT22;35901;48.694;9.476;2023-12-14T04:55:06;4.50;99.90
50013;DHT22;35901;48.694;9.476;2023-12-14T04:57:33;4.50;99.90
50013;DHT22;35901;48.694;9.476;2023-12-14T04:59:59;4.60;99.90
50013;DHT22;35901;48.694;9.476;2023-12-14T05:02:24;4.60;99.90
50013;DHT22;35901;48.694;9.476;2023-12-14T05:04:50;4.60;99.90
50013;DHT22;35901;48.694;9.476;2023-12-14T05:07:16;4.60;99.90
50013;DHT22;35901;48.694;9.476;2023-12-14T05:09:41;4.60;99.90
50013;DHT22;35901;48.694;9.476;2023-12-14T05:12:07;4.60;99.90
50013;DHT22;35901;48.694;9.476;2023-12-14T05:14:33;4.60;99.90
50013;DHT22;35901;48.694;9.476;2023-12-14T05:16:58;4.70;99.90
50013;DHT22;35901;48.694;9.476;2023-12-14T05:19:24;4.70;99.90
50013;DHT22;35901;48.694;9.476;2023-12-14T05:21:49;4.70;99.90
50013;DHT22;35901;48.694;9.476;2023-12-14T05:24:15;4.70;99.90
50013;DHT22;35901;48.694;9.476;2023-12-14T05:26:41;4.70;99.90
50013;DHT22;35901;48.694;9.476;2023-12-14T05:29:06;4.70;99.90
50013;DHT22;35901;48.694;9.476;2023-12-14T05:31:32;4.80;99.90
50013;DHT22;35901;48.694;9.476;2023-12-14T05:33:58;4.80;99.90
50013;DHT22;35901;48.694;9.476;2023-12-14T05:36:23;4.80;99.90
50013;DHT22;35901;48.694;9.476;2023-12-14T05:38:49;4.80;99.90
50013;DHT22;35901;48.694;9.476;2023-12-14T05:41:15;4.80;99.90
50013;DHT22;35901;48.694;9.476;2023-12-14T05:43:41;4.80;99.90
50013;DHT22;35901;48.694;9.476;2023-12-14T05:46:06;4.80;99.90
50013;DHT22;35901;48.694;9.476;2023-12-14T05:48:32;4.80;99.90
50013;DHT22;35901;48.694;9.476;2023-12-14T05:50:59;4.80;99.90
50013;DHT22;35901;48.694;9.476;2023-12-14T05:53:25;4.80;99.90
50013;DHT22;35901;48.694;9.476;2023-12-14T05:55:50;4.80;99.90
50013;DHT22;35901;48.694;9.476;2023-12-14T05:58:16;4.80;99.90
50013;DHT22;35901;48.694;9.476;2023-12-14T06:00:42;4.80;99.90
50013;DHT22;35901;48.694;9.476;2023-12-14T06:03:07;4.80;99.90
50013;DHT22;35901;48.694;9.476;2023-12-14T06:05:33;4.80;99.90
50013;DHT22;35901;48.694;9.476;2023-12-14T06:07:58;4.80;99.90
50013;DHT22;35901;48.694;9.476;2023-12-14T06:10:24;4.80;99.90
50013;DHT22;35901;48.694;9.476;2023-12-14T06:12:50;4.80;99.90
50013;DHT22;35901;48.694;9.476;2023-12-14T06:15:15;4.80;99.90
50013;DHT22;35901;48.694;9.476;2023-12-14T06:17:41;4.80;99.90
50013;DHT22;35901;48.694;9.476;2023-12-14T06:20:08;4.90;99.90
50013;DHT22;35901;48.694;9.476;2023-12-14T06:22:36;4.90;99.90
50013;DHT22;35901;48.694;9.476;2023-12-14T06:25:02;4.90;99.90
50013;DHT22;35901;48.694;9.476;2023-12-14T06:27:28;4.90;99.90
50013;DHT22;35901;48.694;9.476;2023-12-14T06:29:54;4.90;99.90
50013;DHT22;35901;48.694;9.476;2023-12-14T06:32:20;4.90;99.90
50013;DHT22;35901;48.694;9.476;2023-12-14T06:34:45;4.90;99.90
50013;DHT22;35901;48.694;9.476;2023-12-14T06:37:11;4.90;99.90
50013;DHT22;35901;48.694;9.476;2023-12-14T06:39:37;5.00;99.90
50013;DHT22;35901;48.694;9.476;2023-12-14T06:42:03;5.00;99.90
50013;DHT22;35901;48.694;9.476;2023-12-14T06:44:28;5.00;99.90
50013;DHT22;35901;48.694;9.476;2023-12-14T06:46:56;5.00;99.90
50013;DHT22;35901;48.694;9.476;2023-12-14T06:49:23;5.00;99.90
50013;DHT22;35901;48.694;9.476;2023-12-14T06:51:49;5.00;99.90
50013;DHT22;35901;48.694;9.476;2023-12-14T06:54:15;5.00;99.90
50013;DHT22;35901;48.694;9.476;2023-12-14T06:56:40;5.00;99.90
50013;DHT22;35901;48.694;9.476;2023-12-14T06:59:06;5.00;99.90
50013;DHT22;35901;48.694;9.476;2023-12-14T07:01:31;5.00;99.90
50013;DHT22;35901;48.694;9.476;2023-12-14T07:03:57;5.00;99.90
50013;DHT22;35901;48.694;9.476;2023-12-14T07:06:23;5.00;99.90
50013;DHT22;35901;48.694;9.476;2023-12-14T07:08:48;5.00;99.90
50013;DHT22;35901;48.694;9.476;2023-12-14T07:11:14;5.00;99.90
50013;DHT22;35901;48.694;9.476;2023-12-14T07:13:40;5.00;99.90
50013;DHT22;35901;48.694;9.476;2023-12-14T07:16:08;5.00;99.90
50013;DHT22;35901;48.694;9.476;2023-12-14T07:18:41;5.00;99.90
50013;DHT22;35901;48.694;9.476;2023-12-14T07:21:07;5.10;99.90
50013;DHT22;35901;48.694;9.476;2023-12-14T07:23:34;5.00;99.90
50013;DHT22;35901;48.694;9.476;2023-12-14T07:26:01;5.00;99.90
50013;DHT22;35901;48.694;9.476;2023-12-14T07:28:26;5.10;99.90
50013;DHT22;35901;48.694;9.476;2023-12-14T07:30:52;5.10;99.90
50013;DHT22;35901;48.694;9.476;2023-12-14T07:33:18;5.10;99.90
50013;DHT22;35901;48.694;9.476;2023-12-14T07:35:43;5.10;99.90
50013;DHT22;35901;48.694;9.476;2023-12-14T07:38:12;5.10;99.90
50013;DHT22;35901;48.694;9.476;2023-12-14T07:40:38;5.10;99.90
50013;DHT22;35901;48.694;9.476;2023-12-14T07:43:05;5.10;99.90
50013;DHT22;35901;48.694;9.476;2023-12-14T07:45:31;5.10;99.90
50013;DHT22;35901;48.694;9.476;2023-12-14T07:47:56;5.10;99.90
50013;DHT22;35901;48.694;9.476;2023-12-14T07:50:22;5.10;99.90
50013;DHT22;35901;48.694;9.476;2023-12-14T07:52:47;5.10;99.90
50013;DHT22;35901;48.694;9.476;2023-12-14T07:55:13;5.20;99.90
50013;DHT22;35901;48.694;9.476;2023-12-14T07:57:39;5.20;99.90
50013;DHT22;35901;48.694;9.476;2023-12-14T08:00:06;5.20;99.90
50013;DHT22;35901;48.694;9.476;2023-12-14T08:02:34;5.20;99.90
50013;DHT22;35901;48.694;9.476;2023-12-14T08:04:59;5.20;99.90
50013;DHT22;35901;48.694;9.476;2023-12-14T08:07:25;5.30;99.90
50013;DHT22;35901;48.694;9.476;2023-12-14T08:09:58;5.30;99.90
50013;DHT22;35901;48.694;9.476;2023-12-14T08:12:24;5.30;99.90
50013;DHT22;35901;48.694;9.476;2023-12-14T08:14:50;5.30;99.90
50013;DHT22;35901;48.694;9.476;2023-12-14T08:17:16;5.40;99.90
50013;DHT22;35901;48.694;9.476;2023-12-14T08:19:42;5.50;99.90
50013;DHT22;35901;48.694;9.476;2023-12-14T08:22:08;5.50;99.90
50013;DHT22;35901;48.694;9.476;2023-12-14T08:24:37;5.50;99.90
50013;DHT22;35901;48.694;9.476;2023-12-14T08:27:03;5.50;99.90
50013;DHT22;35901;48.694;9.476;2023-12-14T08:29:28;5.50;99.90
50013;DHT22;35901;48.694;9.476;2023-12-14T08:31:54;5.60;99.90
50013;DHT22;35901;48.694;9.476;2023-12-14T08:34:24;5.60;99.90
50013;DHT22;35901;48.694;9.476;2023-12-14T08:36:49;5.60;99.90
50013;DHT22;35901;48.694;9.476;2023-12-14T08:39:15;5.70;99.90
50013;DHT22;35901;48.694;9.476;2023-12-14T08:41:40;5.70;99.90
50013;DHT22;35901;48.694;9.476;2023-12-14T08:44:07;5.70;99.90
50013;DHT22;35901;48.694;9.476;2023-12-14T08:46:45;5.70;99.90
50013;DHT22;35901;48.694;9.476;2023-12-14T08:49:12;5.70;99.90
50013;DHT22;35901;48.694;9.476;2023-12-14T08:51:39;5.80;99.90
50013;DHT22;35901;48.694;9.476;2023-12-14T08:54:05;5.80;99.90
50013;DHT22;35901;48.694;9.476;2023-12-14T08:56:32;5.80;99.90
50013;DHT22;35901;48.694;9.476;2023-12-14T08:58:57;5.90;99.90
50013;DHT22;35901;48.694;9.476;2023-12-14T09:01:25;5.90;99.90
50013;DHT22;35901;48.694;9.476;2023-12-14T09:03:51;5.90;99.90
50013;DHT22;35901;48.694;9.476;2023-12-14T09:06:17;5.90;99.90
50013;DHT22;35901;48.694;9.476;2023-12-14T09:08:44;6.00;99.90
50013;DHT22;35901;48.694;9.476;2023-12-14T09:11:10;6.00;99.90
50013;DHT22;35901;48.694;9.476;2023-12-14T09:13:35;6.00;99.90
50013;DHT22;35901;48.694;9.476;2023-12-14T09:16:01;6.10;99.90
50013;DHT22;35901;48.694;9.476;2023-12-14T09:18:26;6.10;99.90
50013;DHT22;35901;48.694;9.476;2023-12-14T09:20:52;6.10;99.90
50013;DHT22;35901;48.694;9.476;2023-12-14T09:23:18;6.10;99.90
50013;DHT22;35901;48.694;9.476;2023-12-14T09:25:45;6.10;99.90
50013;DHT22;35901;48.694;9.476;2023-12-14T09:28:10;6.20;99.90
50013;DHT22;35901;48.694;9.476;2023-12-14T09:30:36;6.20;99.90
50013;DHT22;35901;48.694;9.476;2023-12-14T09:33:02;6.20;99.90
50013;DHT22;35901;48.694;9.476;2023-12-14T09:35:27;6.20;99.90
50013;DHT22;35901;48.694;9.476;2023-12-14T09:37:53;6.20;99.90
50013;DHT22;35901;48.694;9.476;2023-12-14T09:40:19;6.20;99.90
50013;DHT22;35901;48.694;9.476;2023-12-14T09:42:45;6.10;99.90
50013;DHT22;35901;48.694;9.476;2023-12-14T09:45:11;6.20;99.90
50013;DHT22;35901;48.694;9.476;2023-12-14T09:47:38;6.30;99.90
50013;DHT22;35901;48.694;9.476;2023-12-14T09:50:04;6.30;99.90
50013;DHT22;35901;48.694;9.476;2023-12-14T09:52:31;6.40;99.90
50013;DHT22;35901;48.694;9.476;2023-12-14T09:54:57;6.50;99.90
50013;DHT22;35901;48.694;9.476;2023-12-14T09:57:23;6.50;99.90
50013;DHT22;35901;48.694;9.476;2023-12-14T09:59:54;6.50;99.90
50013;DHT22;35901;48.694;9.476;2023-12-14T10:02:27;6.60;99.90
50013;DHT22;35901;48.694;9.476;2023-12-14T10:04:53;6.60;99.90
50013;DHT22;35901;48.694;9.476;2023-12-14T10:07:21;6.60;99.90
50013;DHT22;35901;48.694;9.476;2023-12-14T10:09:47;6.60;99.90
50013;DHT22;35901;48.694;9.476;2023-12-14T10:12:13;6.60;99.90
50013;DHT22;35901;48.694;9.476;2023-12-14T10:14:38;6.60;99.90
50013;DHT22;35901;48.694;9.476;2023-12-14T10:17:18;6.60;99.90
50013;DHT22;35901;48.694;9.476;2023-12-14T10:19:45;6.70;99.90
50013;DHT22;35901;48.694;9.476;2023-12-14T10:22:14;6.80;99.90
50013;DHT22;35901;48.694;9.476;2023-12-14T10:24:51;6.80;99.90
50013;DHT22;35901;48.694;9.476;2023-12-14T10:27:17;6.80;99.90
50013;DHT22;35901;48.694;9.476;2023-12-14T10:29:43;6.90;99.90
50013;DHT22;35901;48.694;9.476;2023-12-14T10:32:11;7.00;99.90
50013;DHT22;35901;48.694;9.476;2023-12-14T10:34:37;7.00;99.90
50013;DHT22;35901;48.694;9.476;2023-12-14T10:37:05;7.10;99.90
50013;DHT22;35901;48.694;9.476;2023-12-14T10:39:33;7.20;99.90
50013;DHT22;35901;48.694;9.476;2023-12-14T10:42:02;7.20;99.90
50013;DHT22;35901;48.694;9.476;2023-12-14T10:44:30;7.10;99.90
50013;DHT22;35901;48.694;9.476;2023-12-14T10:46:58;7.10;99.90
50013;DHT22;35901;48.694;9.476;2023-12-14T10:49:25;7.10;99.90
50013;DHT22;35901;48.694;9.476;2023-12-14T10:51:55;7.10;99.90
50013;DHT22;35901;48.694;9.476;2023-12-14T10:54:24;7.10;99.90
50013;DHT22;35901;48.694;9.476;2023-12-14T10:56:54;7.10;99.90
50013;DHT22;35901;48.694;9.476;2023-12-14T10:59:21;7.10;99.90
50013;DHT22;35901;48.694;9.476;2023-12-14T11:01:53;7.10;99.90
50013;DHT22;35901;48.694;9.476;2023-12-14T11:04:21;7.10;99.90
50013;DHT22;35901;48.694;9.476;2023-12-14T11:06:47;7.20;99.90
50013;DHT22;35901;48.694;9.476;2023-12-14T11:09:17;7.30;99.90
50013;DHT22;35901;48.694;9.476;2023-12-14T11:14:29;7.50;99.90
50013;DHT22;35901;48.694;9.476;2023-12-14T11:17:05;7.60;99.90
50013;DHT22;35901;48.694;9.476;2023-12-14T11:19:31;7.70;99.90
50013;DHT22;35901;48.694;9.476;2023-12-14T11:22:24;7.90;99.90
50013;DHT22;35901;48.694;9.476;2023-12-14T11:24:54;7.90;99.90
50013;DHT22;35901;48.694;9.476;2023-12-14T11:27:43;7.90;99.90
50013;DHT22;35901;48.694;9.476;2023-12-14T11:30:11;7.90;99.90
50013;DHT22;35901;48.694;9.476;2023-12-14T11:32:37;7.90;99.90
50013;DHT22;35901;48.694;9.476;2023-12-14T11:35:03;7.80;99.90
50013;DHT22;35901;48.694;9.476;2023-12-14T11:37:29;7.80;99.90
50013;DHT22;35901;48.694;9.476;2023-12-14T11:39:54;7.80;99.90
50013;DHT22;35901;48.694;9.476;2023-12-14T11:42:20;7.90;99.90
50013;DHT22;35901;48.694;9.476;2023-12-14T11:44:46;7.90;99.90
50013;DHT22;35901;48.694;9.476;2023-12-14T11:47:11;8.00;99.90
50013;DHT22;35901;48.694;9.476;2023-12-14T11:49:37;8.00;99.90
50013;DHT22;35901;48.694;9.476;2023-12-14T11:52:03;7.90;99.90
50013;DHT22;35901;48.694;9.476;2023-12-14T11:54:32;7.90;99.90
50013;DHT22;35901;48.694;9.476;2023-12-14T11:57:01;7.90;99.90
50013;DHT22;35901;48.694;9.476;2023-12-14T11:59:27;7.90;99.90
50013;DHT22;35901;48.694;9.476;2023-12-14T12:02:00;7.90;99.90
50013;DHT22;35901;48.694;9.476;2023-12-14T12:04:26;7.90;99.90
50013;DHT22;35901;48.694;9.476;2023-12-14T12:07:07;7.90;99.90
50013;DHT22;35901;48.694;9.476;2023-12-14T12:09:39;7.90;99.90
50013;DHT22;35901;48.694;9.476;2023-12-14T12:12:07;7.90;99.90
50013;DHT22;35901;48.694;9.476;2023-12-14T12:14:33;7.90;99.90
50013;DHT22;35901;48.694;9.476;2023-12-14T12:16:59;7.90;99.90
50013;DHT22;35901;48.694;9.476;2023-12-14T12:19:25;7.90;99.90
50013;DHT22;35901;48.694;9.476;2023-12-14T12:21:50;7.90;99.90
50013;DHT22;35901;48.694;9.476;2023-12-14T12:24:16;7.80;99.90
50013;DHT22;35901;48.694;9.476;2023-12-14T12:30:02;7.70;99.90
50013;DHT22;35901;48.694;9.476;2023-12-14T12:32:28;7.70;99.90
50013;DHT22;35901;48.694;9.476;2023-12-14T12:34:54;7.70;99.90
50013;DHT22;35901;48.694;9.476;2023-12-14T12:37:20;7.60;99.90
50013;DHT22;35901;48.694;9.476;2023-12-14T12:39:46;7.60;99.90
50013;DHT22;35901;48.694;9.476;2023-12-14T12:42:12;7.60;99.90
50013;DHT22;35901;48.694;9.476;2023-12-14T12:44:38;7.60;99.90
50013;DHT22;35901;48.694;9.476;2023-12-14T12:47:03;7.70;99.90
50013;DHT22;35901;48.694;9.476;2023-12-14T12:49:30;7.70;99.90
50013;DHT22;35901;48.694;9.476;2023-12-14T12:51:55;7.60;99.90
50013;DHT22;35901;48.694;9.476;2023-12-14T12:54:21;7.60;99.90
50013;DHT22;35901;48.694;9.476;2023-12-14T12:56:47;7.60;99.90
50013;DHT22;35901;48.694;9.476;2023-12-14T12:59:14;7.60;99.90
50013;DHT22;35901;48.694;9.476;2023-12-14T13:01:40;7.60;99.90
50013;DHT22;35901;48.694;9.476;2023-12-14T13:04:20;7.60;99.90
50013;DHT22;35901;48.694;9.476;2023-12-14T13:06:47;7.70;99.90
50013;DHT22;35901;48.694;9.476;2023-12-14T13:09:14;7.70;99.90
50013;DHT22;35901;48.694;9.476;2023-12-14T13:11:40;7.70;99.90
50013;DHT22;35901;48.694;9.476;2023-12-14T13:14:05;7.80;99.90
50013;DHT22;35901;48.694;9.476;2023-12-14T13:16:36;7.80;99.90
50013;DHT22;35901;48.694;9.476;2023-12-14T13:19:02;7.80;99.90
50013;DHT22;35901;48.694;9.476;2023-12-14T13:21:30;7.80;99.90
50013;DHT22;35901;48.694;9.476;2023-12-14T13:23:56;7.80;99.90
50013;DHT22;35901;48.694;9.476;2023-12-14T13:26:24;7.80;99.90
50013;DHT22;35901;48.694;9.476;2023-12-14T13:29:06;7.80;99.90
50013;DHT22;35901;48.694;9.476;2023-12-14T13:31:32;7.70;99.90
50013;DHT22;35901;48.694;9.476;2023-12-14T13:33:57;7.70;99.90
50013;DHT22;35901;48.694;9.476;2023-12-14T13:36:23;7.60;99.90
50013;DHT22;35901;48.694;9.476;2023-12-14T13:38:49;7.60;99.90
50013;DHT22;35901;48.694;9.476;2023-12-14T13:41:17;7.50;99.90
50013;DHT22;35901;48.694;9.476;2023-12-14T13:43:43;7.50;99.90
50013;DHT22;35901;48.694;9.476;2023-12-14T13:46:10;7.50;99.90
50013;DHT22;35901;48.694;9.476;2023-12-14T13:48:35;7.40;99.90
50013;DHT22;35901;48.694;9.476;2023-12-14T13:51:01;7.40;99.90
50013;DHT22;35901;48.694;9.476;2023-12-14T13:53:27;7.30;99.90
50013;DHT22;35901;48.694;9.476;2023-12-14T13:55:52;7.30;99.90
50013;DHT22;35901;48.694;9.476;2023-12-14T13:58:18;7.30;99.90
50013;DHT22;35901;48.694;9.476;2023-12-14T14:00:53;7.20;99.90
50013;DHT22;35901;48.694;9.476;2023-12-14T14:03:18;7.20;99.90
50013;DHT22;35901;48.694;9.476;2023-12-14T14:05:45;7.10;99.90
50013;DHT22;35901;48.694;9.476;2023-12-14T14:08:10;7.00;99.90
50013;DHT22;35901;48.694;9.476;2023-12-14T14:10:36;7.00;99.90
50013;DHT22;35901;48.694;9.476;2023-12-14T14:13:02;6.90;99.90
50013;DHT22;35901;48.694;9.476;2023-12-14T14:15:28;6.80;99.90
50013;DHT22;35901;48.694;9.476;2023-12-14T14:17:54;6.70;99.90
50013;DHT22;35901;48.694;9.476;2023-12-14T14:20:20;6.70;99.90
50013;DHT22;35901;48.694;9.476;2023-12-14T14:22:48;6.70;99.90
50013;DHT22;35901;48.694;9.476;2023-12-14T14:25:13;6.60;99.90
50013;DHT22;35901;48.694;9.476;2023-12-14T14:27:39;6.60;99.90
50013;DHT22;35901;48.694;9.476;2023-12-14T14:30:06;6.60;99.90
50013;DHT22;35901;48.694;9.476;2023-12-14T14:32:33;6.60;99.90
50013;DHT22;35901;48.694;9.476;2023-12-14T14:35:00;6.60;99.90
50013;DHT22;35901;48.694;9.476;2023-12-14T14:37:26;6.60;99.90
50013;DHT22;35901;48.694;9.476;2023-12-14T14:39:52;6.60;99.90
50013;DHT22;35901;48.694;9.476;2023-12-14T14:42:17;6.50;99.90
50013;DHT22;35901;48.694;9.476;2023-12-14T14:44:43;6.50;99.90
50013;DHT22;35901;48.694;9.476;2023-12-14T14:47:09;6.50;99.90
50013;DHT22;35901;48.694;9.476;2023-12-14T14:49:34;6.50;99.90
50013;DHT22;35901;48.694;9.476;2023-12-14T14:52:00;6.50;99.90
50013;DHT22;35901;48.694;9.476;2023-12-14T14:54:26;6.40;99.90
50013;DHT22;35901;48.694;9.476;2023-12-14T14:56:51;6.40;99.90
50013;DHT22;35901;48.694;9.476;2023-12-14T14:59:17;6.40;99.90
50013;DHT22;35901;48.694;9.476;2023-12-14T15:01:44;6.40;99.90
50013;DHT22;35901;48.694;9.476;2023-12-14T15:04:11;6.40;99.90
50013;DHT22;35901;48.694;9.476;2023-12-14T15:06:37;6.30;99.90
50013;DHT22;35901;48.694;9.476;2023-12-14T15:09:05;6.30;99.90
50013;DHT22;35901;48.694;9.476;2023-12-14T15:11:30;6.30;99.90
50013;DHT22;35901;48.694;9.476;2023-12-14T15:13:56;6.30;99.90
50013;DHT22;35901;48.694;9.476;2023-12-14T15:16:22;6.30;99.90
50013;DHT22;35901;48.694;9.476;2023-12-14T15:18:50;6.30;99.90
50013;DHT22;35901;48.694;9.476;2023-12-14T15:21:16;6.20;99.90
50013;DHT22;35901;48.694;9.476;2023-12-14T15:23:43;6.20;99.90
50013;DHT22;35901;48.694;9.476;2023-12-14T15:26:09;6.20;99.90
50013;DHT22;35901;48.694;9.476;2023-12-14T15:28:37;6.20;99.90
50013;DHT22;35901;48.694;9.476;2023-12-14T15:31:03;6.20;99.90
50013;DHT22;35901;48.694;9.476;2023-12-14T15:33:28;6.10;99.90
50013;DHT22;35901;48.694;9.476;2023-12-14T15:35:54;6.10;99.90
50013;DHT22;35901;48.694;9.476;2023-12-14T15:38:20;6.10;99.90
50013;DHT22;35901;48.694;9.476;2023-12-14T15:40:45;6.10;99.90
50013;DHT22;35901;48.694;9.476;2023-12-14T15:43:11;6.10;99.90
50013;DHT22;35901;48.694;9.476;2023-12-14T15:45:37;6.00;99.90